Time;durP1;ratioP1;P1;durP2;ratioP2;P2;SDS_P1;SDS_P2;PMS_P1;PMS_P2;Temp;Humidity;BMP_temperature;BMP_pressure;BME280_temperature;BME280_humidity;BME280_pressure;Samples;Min_cycle;Max_cycle;Signal;HPM_P1;HPM_P2
2022/09/07 00:01:42;;;;;;;7.05;3.55;;;;;;;18.00;100.00;96065.28;5065849;28;20031;-77
2022/09/07 00:04:08;;;;;;;10.93;3.72;;;;;;;17.95;100.00;96062.47;5060284;28;20657;-78
2022/09/07 00:06:34;;;;;;;8.20;3.67;;;;;;;17.90;100.00;96059.59;5057580;28;20137;-77
2022/09/07 00:09:01;;;;;;;8.30;3.88;;;;;;;17.85;100.00;96065.56;5067413;28;20470;-77
2022/09/07 00:11:27;;;;;;;7.85;3.17;;;;;;;17.85;100.00;96070.88;5053707;28;20033;-77
2022/09/07 00:13:53;;;;;;;6.47;3.17;;;;;;;17.91;100.00;96069.22;5062171;28;20060;-78
2022/09/07 00:16:23;;;;;;;5.40;2.95;;;;;;;17.91;100.00;96066.56;5067374;28;20434;-77
2022/09/07 00:18:49;;;;;;;6.35;2.97;;;;;;;17.95;100.00;96070.44;5066263;28;20457;-77
2022/09/07 00:21:16;;;;;;;6.60;3.28;;;;;;;17.97;100.00;96064.91;5067308;28;20028;-77
2022/09/07 00:23:42;;;;;;;5.28;2.63;;;;;;;17.99;100.00;96066.34;5058908;28;20572;-77
2022/09/07 00:26:14;;;;;;;6.55;2.53;;;;;;;18.12;100.00;96065.47;5066133;28;20031;-77
2022/09/07 00:28:40;;;;;;;6.85;2.50;;;;;;;18.17;100.00;96062.16;5074148;28;20028;-78
2022/09/07 00:31:12;;;;;;;7.45;2.85;;;;;;;18.21;100.00;96061.56;5066823;28;20765;-77
2022/09/07 00:33:38;;;;;;;6.95;2.53;;;;;;;18.36;100.00;96067.41;5058567;28;20060;-77
2022/09/07 00:36:04;;;;;;;6.15;2.03;;;;;;;18.42;100.00;96070.25;5060468;28;20036;-77
2022/09/07 00:38:30;;;;;;;8.85;2.25;;;;;;;18.51;100.00;96061.81;5066452;28;20032;-77
2022/09/07 00:40:55;;;;;;;4.47;2.00;;;;;;;18.40;100.00;96061.66;5039995;28;20036;-77
2022/09/07 00:43:34;;;;;;;2.80;1.67;;;;;;;18.34;100.00;96069.47;5064817;28;20035;-77
2022/09/07 00:46:00;;;;;;;5.13;1.90;;;;;;;18.31;100.00;96061.09;5062917;28;20116;-77
2022/09/07 00:48:54;;;;;;;4.45;2.03;;;;;;;18.25;100.00;96068.09;5035561;28;20028;-77
2022/09/07 00:51:44;;;;;;;3.53;1.50;;;;;;;18.28;100.00;96067.66;5048742;28;20031;-76
2022/09/07 00:54:18;;;;;;;4.95;1.98;;;;;;;18.28;100.00;96057.00;5067373;28;20028;-75
2022/09/07 00:56:46;;;;;;;3.78;1.65;;;;;;;18.23;100.00;96059.47;5051625;28;20112;-76
2022/09/07 00:59:14;;;;;;;5.07;1.77;;;;;;;18.24;100.00;96047.81;5054849;28;20512;-76
2022/09/07 01:01:40;;;;;;;4.25;1.63;;;;;;;18.27;100.00;96046.56;5060765;28;20039;-77
2022/09/07 01:04:07;;;;;;;4.22;1.65;;;;;;;18.23;100.00;96037.38;5064504;28;20036;-76
2022/09/07 01:06:35;;;;;;;4.03;1.70;;;;;;;18.22;100.00;96036.56;5063066;28;20120;-76
2022/09/07 01:09:11;;;;;;;2.75;1.52;;;;;;;18.27;100.00;96035.91;5061096;28;20478;-76
2022/09/07 01:11:37;;;;;;;6.07;2.03;;;;;;;18.28;100.00;96037.56;5060314;28;20031;-77
2022/09/07 01:14:06;;;;;;;4.68;2.10;;;;;;;18.04;100.00;96036.41;5032462;28;21032;-77
2022/09/07 01:16:35;;;;;;;5.32;2.00;;;;;;;17.87;100.00;96034.25;5064250;28;20029;-78
2022/09/07 01:19:36;;;;;;;3.97;1.77;;;;;;;17.83;100.00;96032.19;5066676;28;20040;-77
2022/09/07 01:22:23;;;;;;;7.60;2.95;;;;;;;17.71;100.00;96031.19;5065778;28;20098;-77
2022/09/07 01:25:26;;;;;;;8.38;3.95;;;;;;;17.26;100.00;96033.72;5055209;28;20039;-77
2022/09/07 01:28:13;;;;;;;9.02;3.85;;;;;;;17.25;100.00;96032.09;5046132;28;20072;-77
2022/09/07 01:30:48;;;;;;;9.52;3.25;;;;;;;17.07;100.00;96024.72;5063322;28;20478;-77
2022/09/07 01:33:24;;;;;;;7.10;3.55;;;;;;;17.04;100.00;96017.19;5062911;28;20021;-77
2022/09/07 01:35:56;;;;;;;7.82;2.75;;;;;;;17.11;100.00;96010.84;5064142;28;20444;-77
2022/09/07 01:38:25;;;;;;;6.60;2.42;;;;;;;17.17;100.00;96004.72;5066178;28;20438;-77
2022/09/07 01:40:57;;;;;;;4.88;2.45;;;;;;;17.23;100.00;96000.38;5064535;28;20043;-76
2022/09/07 01:43:48;;;;;;;5.47;2.50;;;;;;;17.33;100.00;95999.97;5066244;28;20121;-77
2022/09/07 01:46:30;;;;;;;4.82;1.90;;;;;;;17.36;100.00;96004.88;5056430;28;20044;-77
2022/09/07 01:49:14;;;;;;;6.72;2.60;;;;;;;17.41;100.00;95994.44;5059011;28;20562;-77
2022/09/07 01:51:44;;;;;;;4.97;2.10;;;;;;;17.45;100.00;96000.97;5058784;28;20045;-77
2022/09/07 01:54:19;;;;;;;7.40;2.85;;;;;;;17.43;100.00;96011.00;5062374;28;20036;-77
2022/09/07 01:56:49;;;;;;;5.72;2.08;;;;;;;17.41;100.00;96013.06;5062233;28;20025;-77
2022/09/07 01:59:29;;;;;;;7.55;2.50;;;;;;;17.46;100.00;96012.44;5073685;28;20715;-77
2022/09/07 02:02:11;;;;;;;5.47;2.13;;;;;;;17.56;100.00;96010.97;5083522;28;20123;-77
2022/09/07 02:04:49;;;;;;;9.48;2.22;;;;;;;17.58;100.00;96018.75;5056044;28;20048;-77
2022/09/07 02:07:26;;;;;;;11.32;2.55;;;;;;;17.56;100.00;96020.78;5039134;28;20055;-77
2022/09/07 02:10:01;;;;;;;6.53;2.20;;;;;;;17.54;100.00;96017.50;5065187;28;20470;-77
2022/09/07 02:12:37;;;;;;;10.65;2.30;;;;;;;17.52;100.00;96009.75;5057080;28;20024;-76
2022/09/07 02:15:13;;;;;;;6.00;2.60;;;;;;;17.49;100.00;96009.34;5067716;28;20024;-76
2022/09/07 02:17:44;;;;;;;5.80;3.00;;;;;;;17.45;100.00;96000.97;5059900;28;20099;-77
2022/09/07 02:20:21;;;;;;;6.10;2.20;;;;;;;17.42;100.00;96004.06;5068035;28;20524;-77
2022/09/07 02:22:52;;;;;;;7.43;2.28;;;;;;;17.48;100.00;96002.41;5067321;28;20040;-77
2022/09/07 02:25:24;;;;;;;6.40;2.20;;;;;;;17.51;100.00;96002.00;5063436;28;20071;-77
2022/09/07 02:28:03;;;;;;;7.45;2.40;;;;;;;17.54;100.00;96010.38;5059225;28;20037;-77
2022/09/07 02:30:29;;;;;;;5.68;2.17;;;;;;;17.60;100.00;96014.03;5066797;28;20035;-76
2022/09/07 02:32:55;;;;;;;7.65;2.28;;;;;;;17.63;100.00;96018.94;5063061;28;20036;-77
2022/09/07 02:35:21;;;;;;;7.68;2.20;;;;;;;17.66;100.00;96016.66;5062318;28;20604;-77
2022/09/07 02:37:49;;;;;;;7.60;2.38;;;;;;;17.73;100.00;96019.31;5055806;28;20064;-77
2022/09/07 02:40:15;;;;;;;4.05;2.03;;;;;;;17.74;100.00;96023.63;5064780;28;20032;-76
2022/09/07 02:42:42;;;;;;;3.97;2.20;;;;;;;17.77;100.00;96022.41;5073388;28;20033;-77
2022/09/07 02:45:10;;;;;;;6.55;2.67;;;;;;;17.79;100.00;96015.84;5068461;28;20091;-77
2022/09/07 02:47:39;;;;;;;5.88;2.58;;;;;;;17.78;100.00;96019.53;5059745;28;20028;-77
2022/09/07 02:50:17;;;;;;;5.00;2.47;;;;;;;17.77;100.00;96022.41;5063506;28;20046;-76
2022/09/07 02:53:09;;;;;;;7.82;2.83;;;;;;;17.75;100.00;96022.59;5060720;28;20043;-77
2022/09/07 02:56:15;;;;;;;7.38;2.83;;;;;;;17.71;100.00;96013.41;5064684;28;20054;-76
2022/09/07 02:59:14;;;;;;;6.43;2.67;;;;;;;17.74;100.00;96022.78;5067621;28;20021;-77
2022/09/07 03:02:08;;;;;;;7.25;2.53;;;;;;;17.78;100.00;96027.53;5065761;28;20071;-77
2022/09/07 03:05:00;;;;;;;7.28;2.58;;;;;;;17.83;100.00;96021.56;5065876;28;20481;-77
2022/09/07 03:07:35;;;;;;;5.30;2.40;;;;;;;17.82;100.00;96026.06;5067379;28;20028;-77
2022/09/07 03:10:04;;;;;;;7.90;2.72;;;;;;;17.90;100.00;96020.50;5059445;28;20033;-77
2022/09/07 03:12:43;;;;;;;6.85;2.40;;;;;;;17.94;100.00;96022.75;5061019;28;20052;-77
2022/09/07 03:15:27;;;;;;;4.53;2.20;;;;;;;17.94;100.00;96025.41;5062426;28;20024;-77
2022/09/07 03:17:53;;;;;;;6.97;2.70;;;;;;;17.92;100.00;96024.81;5067495;28;20028;-77
2022/09/07 03:20:20;;;;;;;5.10;2.50;;;;;;;17.97;100.00;96017.81;5067052;28;20047;-77
2022/09/07 03:22:48;;;;;;;6.97;2.50;;;;;;;17.89;100.00;96020.72;5059274;28;20035;-77
2022/09/07 03:25:14;;;;;;;5.63;2.75;;;;;;;17.76;100.00;96016.25;5049985;28;20071;-77
2022/09/07 03:27:40;;;;;;;5.55;2.90;;;;;;;17.78;100.00;96013.41;5067848;28;20028;-77
2022/09/07 03:30:07;;;;;;;6.93;2.80;;;;;;;17.78;100.00;96024.06;5055786;28;20033;-76
2022/09/07 03:32:35;;;;;;;6.20;2.95;;;;;;;17.76;100.00;96020.75;5054702;28;20024;-76
2022/09/07 03:35:01;;;;;;;7.85;2.70;;;;;;;17.71;100.00;96031.19;5064547;28;20032;-76
2022/09/07 03:37:27;;;;;;;5.28;2.95;;;;;;;17.70;100.00;96024.22;5056497;28;20056;-76
2022/09/07 03:39:53;;;;;;;13.07;8.00;;;;;;;17.64;100.00;96026.72;5058804;28;20426;-76
2022/09/07 03:42:19;;;;;;;6.88;3.08;;;;;;;17.64;100.00;96034.69;5062109;28;20067;-76
2022/09/07 03:44:45;;;;;;;6.15;2.60;;;;;;;17.60;100.00;96037.97;5058645;28;20040;-76
2022/09/07 03:47:11;;;;;;;5.88;2.78;;;;;;;17.65;100.00;96054.94;5067329;28;20028;-76
2022/09/07 03:49:37;;;;;;;7.93;2.58;;;;;;;17.62;100.00;96060.66;5062707;28;20036;-76
2022/09/07 03:52:03;;;;;;;9.48;2.70;;;;;;;17.64;100.00;96055.97;5069329;28;20032;-77
2022/09/07 03:54:28;;;;;;;7.82;2.63;;;;;;;17.64;100.00;96058.63;5065565;28;20029;-75
2022/09/07 03:56:54;;;;;;;6.10;2.70;;;;;;;17.62;100.00;96049.22;5059854;28;20048;-76
2022/09/07 03:59:20;;;;;;;7.65;2.65;;;;;;;17.59;100.00;96047.78;5067116;28;20028;-76
2022/09/07 04:01:46;;;;;;;10.35;3.13;;;;;;;17.53;100.00;96048.59;5050028;28;20172;-76
2022/09/07 04:04:11;;;;;;;4.25;2.10;;;;;;;17.51;100.00;96060.50;5050481;28;20036;-76
2022/09/07 04:06:37;;;;;;;8.32;2.50;;;;;;;17.43;100.00;96069.47;5058079;28;20033;-76
2022/09/07 04:09:05;;;;;;;11.10;3.20;;;;;;;17.41;100.00;96069.69;5063944;28;20031;-76
2022/09/07 04:11:31;;;;;;;12.60;4.07;;;;;;;17.34;100.00;96071.53;5065946;28;20397;-76
2022/09/07 04:13:57;;;;;;;6.15;3.28;;;;;;;17.34;100.00;96071.53;5066394;28;20089;-76
2022/09/07 04:16:25;;;;;;;6.85;2.90;;;;;;;17.29;100.00;96076.66;5066864;28;20024;-76
2022/09/07 04:18:53;;;;;;;7.65;3.70;;;;;;;17.28;100.00;96079.53;5063604;28;20026;-76
2022/09/07 04:21:21;;;;;;;6.20;2.55;;;;;;;17.27;100.00;96078.72;5059784;28;20024;-76
2022/09/07 04:23:47;;;;;;;6.95;2.75;;;;;;;17.22;100.00;96075.84;5064453;28;20762;-76
2022/09/07 04:26:19;;;;;;;8.23;2.58;;;;;;;17.18;100.00;96074.63;5051725;28;20029;-76
2022/09/07 04:28:45;;;;;;;8.05;2.85;;;;;;;17.24;100.00;96081.78;5058185;28;20036;-76
2022/09/07 04:31:12;;;;;;;5.70;2.35;;;;;;;17.18;100.00;96080.75;5056873;28;20037;-76
2022/09/07 04:33:38;;;;;;;5.82;2.75;;;;;;;17.24;100.00;96080.97;5055845;28;20100;-76
2022/09/07 04:36:04;;;;;;;6.40;2.40;;;;;;;17.28;100.00;96076.88;5065125;28;20127;-76
2022/09/07 04:38:29;;;;;;;8.38;2.95;;;;;;;17.28;100.00;96079.53;5067457;28;20032;-76
2022/09/07 04:41:08;;;;;;;4.43;2.42;;;;;;;17.30;100.00;96080.13;5062074;28;20120;-76
2022/09/07 04:43:34;;;;;;;7.68;2.83;;;;;;;17.32;100.00;96089.53;5062457;28;20040;-77
2022/09/07 04:46:06;;;;;;;7.88;2.75;;;;;;;17.32;100.00;96094.84;5056342;28;20129;-76
2022/09/07 04:48:32;;;;;;;6.93;2.50;;;;;;;17.29;100.00;96099.75;5067342;28;20028;-76
2022/09/07 04:51:05;;;;;;;7.60;3.38;;;;;;;17.30;100.00;96102.19;5065223;28;20078;-76
2022/09/07 04:53:32;;;;;;;6.93;2.55;;;;;;;17.29;100.00;96110.38;5066407;28;20051;-76
2022/09/07 04:55:58;;;;;;;6.22;2.53;;;;;;;17.22;100.00;96105.06;5062860;28;20037;-76
2022/09/07 04:58:24;;;;;;;7.65;3.30;;;;;;;17.22;100.00;96105.06;5060673;28;20035;-76
2022/09/07 05:00:49;;;;;;;7.75;2.53;;;;;;;17.30;100.00;96110.16;5047613;28;20044;-76
2022/09/07 05:03:15;;;;;;;5.65;2.47;;;;;;;17.29;100.00;96105.88;5052988;28;20021;-76
2022/09/07 05:05:41;;;;;;;9.73;2.92;;;;;;;17.38;100.00;96111.81;5058345;28;20060;-76
2022/09/07 05:08:06;;;;;;;5.97;2.97;;;;;;;17.30;100.00;96107.50;5053979;28;20025;-76
2022/09/07 05:10:32;;;;;;;5.30;2.58;;;;;;;17.25;100.00;96109.16;5056394;28;20041;-76
2022/09/07 05:12:58;;;;;;;5.30;3.10;;;;;;;17.30;100.00;96104.84;5056597;28;20043;-76
2022/09/07 05:15:24;;;;;;;7.18;2.97;;;;;;;17.24;100.00;96099.56;5066118;28;20040;-76
2022/09/07 05:17:50;;;;;;;4.88;2.10;;;;;;;17.26;100.00;96103.63;5061378;28;20553;-76
2022/09/07 05:20:18;;;;;;;9.73;3.22;;;;;;;17.32;100.00;96104.66;5052648;28;20104;-76
2022/09/07 05:22:44;;;;;;;5.53;2.85;;;;;;;17.26;100.00;96103.63;5061612;28;20425;-76
2022/09/07 05:25:10;;;;;;;5.50;2.72;;;;;;;17.27;100.00;96107.94;5058566;28;20032;-76
2022/09/07 05:27:36;;;;;;;8.20;3.42;;;;;;;17.26;100.00;96102.81;5063623;28;20386;-76
2022/09/07 05:30:01;;;;;;;5.72;2.75;;;;;;;17.24;100.00;96104.88;5065066;28;20566;-76
2022/09/07 05:32:27;;;;;;;6.85;2.60;;;;;;;17.18;100.00;96112.63;5059620;28;20436;-76
2022/09/07 05:34:53;;;;;;;8.02;3.55;;;;;;;17.20;100.00;96107.09;5066426;28;20038;-76
2022/09/07 05:37:19;;;;;;;6.18;2.65;;;;;;;17.28;100.00;96106.91;5058716;28;20033;-76
2022/09/07 05:39:44;;;;;;;7.82;4.20;;;;;;;16.69;100.00;96119.03;5058256;28;20082;-76
2022/09/07 05:42:10;;;;;;;9.68;4.70;;;;;;;16.40;100.00;96122.03;5064896;28;20098;-76
2022/09/07 05:44:36;;;;;;;11.50;4.32;;;;;;;16.46;100.00;96122.06;5067135;28;20028;-77
2022/09/07 05:47:02;;;;;;;7.20;3.55;;;;;;;16.58;100.00;96118.81;5057093;28;20060;-77
2022/09/07 05:49:29;;;;;;;8.10;3.78;;;;;;;16.75;100.00;96114.00;5058774;28;20028;-76
2022/09/07 05:51:54;;;;;;;7.85;3.83;;;;;;;16.91;100.00;96118.94;5057658;28;20622;-76
2022/09/07 05:54:20;;;;;;;6.85;3.78;;;;;;;17.09;100.00;96110.38;5062450;28;20117;-76
2022/09/07 05:56:45;;;;;;;8.35;3.25;;;;;;;17.25;100.00;96109.16;5065730;28;20024;-76
2022/09/07 05:59:11;;;;;;;7.65;3.25;;;;;;;17.55;100.00;96102.41;5066284;28;20063;-77
2022/09/07 06:01:37;;;;;;;8.52;3.83;;;;;;;18.01;100.00;96103.38;5069691;28;20082;-76
2022/09/07 06:04:02;;;;;;;11.45;3.28;;;;;;;18.20;100.00;96091.03;5078262;28;20065;-76
2022/09/07 06:06:28;;;;;;;7.45;2.88;;;;;;;18.62;100.00;96086.97;5067952;28;20039;-75
2022/09/07 06:08:56;;;;;;;8.07;3.33;;;;;;;19.34;100.00;96090.19;5061693;28;20446;-76
2022/09/07 06:11:23;;;;;;;10.32;3.35;;;;;;;19.14;100.00;96097.50;5060373;28;20124;-76
2022/09/07 06:13:49;;;;;;;7.82;3.00;;;;;;;18.83;100.00;96104.50;5058742;28;20742;-76
2022/09/07 06:16:17;;;;;;;11.20;3.30;;;;;;;18.48;100.00;96104.84;5069244;28;20086;-76
2022/09/07 06:18:45;;;;;;;8.60;3.38;;;;;;;18.93;100.00;96096.84;5065408;28;20060;-76
2022/09/07 06:21:13;;;;;;;6.10;2.60;;;;;;;19.78;100.00;96085.72;5051416;28;20028;-76
2022/09/07 06:23:40;;;;;;;7.15;2.90;;;;;;;20.45;100.00;96083.09;5064845;28;20028;-76
2022/09/07 06:26:06;;;;;;;6.40;3.03;;;;;;;20.59;100.00;96087.28;5060990;28;20044;-76
2022/09/07 06:28:34;;;;;;;8.80;3.25;;;;;;;20.19;100.00;96085.06;5063316;28;20031;-77
2022/09/07 06:31:04;;;;;;;6.85;2.83;;;;;;;21.32;100.00;96086.19;5067886;28;20024;-76
2022/09/07 06:33:30;;;;;;;6.60;2.65;;;;;;;22.11;100.00;96085.91;5065093;28;20119;-76
2022/09/07 06:35:59;;;;;;;7.03;2.50;;;;;;;22.46;100.00;96095.75;5067766;28;20115;-76
2022/09/07 06:38:29;;;;;;;10.82;2.97;;;;;;;22.66;100.00;96093.44;5062534;28;20539;-76
2022/09/07 06:41:03;;;;;;;8.60;2.83;;;;;;;22.76;100.00;96088.28;5070550;28;20082;-76
2022/09/07 06:43:29;;;;;;;13.48;3.08;;;;;;;22.90;100.00;96093.34;5050684;28;20864;-77
2022/09/07 06:45:55;;;;;;;11.07;2.47;;;;;;;23.05;100.00;96091.00;5056775;28;20068;-76
2022/09/07 06:48:21;;;;;;;6.80;2.45;;;;;;;23.68;100.00;96095.28;5068318;28;20661;-77
2022/09/07 06:51:13;;;;;;;4.78;2.67;;;;;;;23.75;100.00;96095.13;5067863;28;20063;-77
2022/09/07 06:53:39;;;;;;;6.88;2.28;;;;;;;24.34;100.00;96103.44;5068392;28;20047;-77
2022/09/07 06:56:07;;;;;;;7.72;2.75;;;;;;;24.16;100.00;96101.88;5064521;28;20390;-76
2022/09/07 06:58:34;;;;;;;7.07;2.35;;;;;;;24.38;100.00;96098.38;5048316;28;20044;-76
2022/09/07 07:01:09;;;;;;;4.35;2.10;;;;;;;24.42;100.00;96104.94;5058906;28;20124;-77
2022/09/07 07:03:35;;;;;;;7.18;2.53;;;;;;;24.91;100.00;96096.84;5063942;28;20485;-77
2022/09/07 07:06:02;;;;;;;6.13;2.40;;;;;;;24.57;100.00;96099.72;5068303;28;20044;-76
2022/09/07 07:08:28;;;;;;;7.70;2.00;;;;;;;25.06;100.00;96099.72;5067825;28;20444;-76
2022/09/07 07:10:54;;;;;;;7.95;2.58;;;;;;;24.89;100.00;96110.56;5054964;28;20056;-76
2022/09/07 07:13:19;;;;;;;7.45;2.28;;;;;;;25.01;100.00;96114.97;5060095;28;20059;-77
2022/09/07 07:15:45;;;;;;;5.85;1.98;;;;;;;25.10;99.94;96114.28;5063602;28;20513;-76
2022/09/07 07:18:12;;;;;;;7.00;2.35;;;;;;;25.38;100.00;96107.81;5060575;28;20064;-79
2022/09/07 07:20:40;;;;;;;7.55;2.30;;;;;;;25.24;100.00;96103.94;5059164;28;20147;-76
2022/09/07 07:23:07;;;;;;;8.38;2.28;;;;;;;25.67;98.36;96109.41;5062578;28;20358;-76
2022/09/07 07:25:36;;;;;;;8.80;2.30;;;;;;;25.63;99.01;96111.81;5066497;28;20047;-76
2022/09/07 07:28:03;;;;;;;5.53;1.80;;;;;;;25.89;99.37;96112.84;5067162;28;20045;-77
2022/09/07 07:30:29;;;;;;;8.07;2.40;;;;;;;25.80;94.22;96119.78;5066477;28;20107;-76
2022/09/07 07:32:56;;;;;;;6.13;1.85;;;;;;;26.04;92.49;96115.63;5066901;28;20031;-76
2022/09/07 07:35:22;;;;;;;4.45;1.63;;;;;;;26.70;89.82;96111.69;5067827;28;20498;-76
2022/09/07 07:37:51;;;;;;;5.97;2.38;;;;;;;26.67;87.09;96106.81;5068726;28;20010;-76
2022/09/07 07:40:17;;;;;;;6.78;2.20;;;;;;;27.34;78.90;96105.91;5056758;28;20045;-76
2022/09/07 07:42:43;;;;;;;5.93;1.60;;;;;;;27.99;75.87;96111.56;5047405;28;20120;-76
2022/09/07 07:45:09;;;;;;;5.35;1.70;;;;;;;27.16;74.78;96103.72;5062220;28;20041;-78
2022/09/07 07:47:36;;;;;;;8.00;2.35;;;;;;;26.32;89.02;96109.06;5069202;28;20032;-77
2022/09/07 07:50:04;;;;;;;10.00;2.47;;;;;;;25.50;97.32;96109.56;5050140;28;20406;-77
2022/09/07 07:52:38;;;;;;;9.13;1.90;;;;;;;25.47;88.40;96113.56;5068613;28;20035;-76
2022/09/07 07:55:05;;;;;;;10.05;3.03;;;;;;;24.46;100.00;96117.59;5068496;28;20036;-77
2022/09/07 07:57:31;;;;;;;7.47;2.50;;;;;;;23.55;100.00;96125.09;5069405;28;20028;-77
2022/09/07 07:59:57;;;;;;;4.70;1.90;;;;;;;23.96;100.00;96121.19;5067917;28;20928;-77
2022/09/07 08:02:23;;;;;;;6.53;2.53;;;;;;;24.15;100.00;96129.00;5066454;28;20684;-77
2022/09/07 08:04:49;;;;;;;5.63;2.63;;;;;;;24.75;100.00;96130.88;5062086;28;20052;-76
2022/09/07 08:07:15;;;;;;;6.03;2.70;;;;;;;25.48;100.00;96128.66;5052863;28;20477;-77
2022/09/07 08:09:43;;;;;;;5.50;2.60;;;;;;;25.55;97.58;96123.88;5063396;28;20051;-77
2022/09/07 08:12:11;;;;;;;11.02;2.75;;;;;;;26.40;93.60;96125.81;5066869;28;20060;-77
2022/09/07 08:14:39;;;;;;;6.07;2.30;;;;;;;27.06;86.02;96120.66;5047664;28;20127;-77
2022/09/07 08:17:06;;;;;;;6.38;1.98;;;;;;;26.73;82.13;96124.63;5068273;28;20024;-77
2022/09/07 08:19:32;;;;;;;7.38;2.05;;;;;;;26.48;83.14;96128.84;5068690;28;20025;-76
2022/09/07 08:21:58;;;;;;;7.88;2.25;;;;;;;26.59;81.94;96132.38;5067746;28;20032;-77
2022/09/07 08:24:23;;;;;;;6.15;1.80;;;;;;;26.12;85.58;96133.19;5072830;28;20708;-77
2022/09/07 08:26:49;;;;;;;7.68;2.42;;;;;;;26.62;81.21;96136.44;5067043;28;20025;-77
2022/09/07 08:29:15;;;;;;;4.80;1.90;;;;;;;26.51;83.37;96141.78;5066811;28;20040;-77
2022/09/07 08:31:40;;;;;;;7.07;2.45;;;;;;;26.40;84.84;96140.09;5068772;28;20157;-77
2022/09/07 08:34:06;;;;;;;6.57;2.05;;;;;;;27.56;78.51;96135.34;5066232;28;20033;-77
2022/09/07 08:36:32;;;;;;;8.18;2.30;;;;;;;27.78;77.25;96132.41;5070967;28;20032;-77
2022/09/07 08:38:58;;;;;;;7.40;1.88;;;;;;;28.01;72.74;96136.44;5067393;28;20127;-77
2022/09/07 08:41:50;;;;;;;6.28;2.13;;;;;;;28.26;72.00;96135.56;5046431;28;20036;-77
2022/09/07 08:44:36;;;;;;;6.53;2.13;;;;;;;28.45;68.09;96143.94;5042704;28;20036;-77
2022/09/07 08:47:09;;;;;;;7.35;1.83;;;;;;;28.06;71.79;96141.03;5066130;28;20033;-77
2022/09/07 08:49:51;;;;;;;7.93;2.42;;;;;;;27.74;71.60;96147.53;5039481;28;20029;-77
2022/09/07 08:52:27;;;;;;;7.32;2.17;;;;;;;27.06;78.79;96152.25;5070773;28;20166;-77
2022/09/07 08:55:11;;;;;;;6.57;1.80;;;;;;;26.26;87.85;96160.53;5061674;28;20036;-79
2022/09/07 08:57:44;;;;;;;5.80;1.85;;;;;;;26.19;85.97;96149.13;5057224;28;20839;-77
2022/09/07 09:00:15;;;;;;;5.93;1.75;;;;;;;26.69;87.65;96147.81;5062622;28;20730;-77
2022/09/07 09:02:41;;;;;;;5.82;1.73;;;;;;;27.23;83.42;96150.16;5050891;28;20041;-77
2022/09/07 09:05:22;;;;;;;9.35;2.60;;;;;;;28.30;74.69;96149.34;5053778;28;20123;-77
2022/09/07 09:07:59;;;;;;;9.80;3.08;;;;;;;27.17;83.59;96164.75;5057760;28;20403;-77
2022/09/07 09:10:35;;;;;;;4.35;1.52;;;;;;;26.83;83.90;96157.06;5056293;28;20497;-76
2022/09/07 09:13:27;;;;;;;5.90;2.05;;;;;;;26.86;87.55;96158.38;5069373;28;20118;-77
2022/09/07 09:16:07;;;;;;;13.02;5.60;;;;;;;26.28;90.58;96158.34;5062915;28;20051;-77
2022/09/07 09:18:50;;;;;;;9.80;4.63;;;;;;;26.41;92.61;96151.69;5066565;28;20043;-77
2022/09/07 09:21:17;;;;;;;8.85;2.47;;;;;;;27.65;82.51;96138.31;5065600;28;20067;-76
2022/09/07 09:23:46;;;;;;;6.85;2.40;;;;;;;26.92;86.88;96135.75;5048456;28;20032;-76
2022/09/07 09:26:26;;;;;;;12.63;2.65;;;;;;;26.62;88.98;96136.44;5042964;28;20424;-77
2022/09/07 09:28:52;;;;;;;16.70;2.83;;;;;;;27.01;88.72;96150.34;5064748;28;20032;-76
2022/09/07 09:31:25;;;;;;;10.13;2.50;;;;;;;27.58;83.96;96137.78;5066958;28;20020;-77
2022/09/07 09:34:13;;;;;;;13.50;3.00;;;;;;;28.84;74.32;96129.72;5055903;28;20024;-76
2022/09/07 09:36:53;;;;;;;13.93;2.40;;;;;;;27.47;84.24;96137.78;5068400;28;20029;-78
2022/09/07 09:39:32;;;;;;;6.00;2.47;;;;;;;27.19;84.90;96140.97;5054124;28;20111;-77
2022/09/07 09:42:20;;;;;;;6.63;2.58;;;;;;;28.09;78.98;96132.38;5063352;28;20032;-77
2022/09/07 09:44:46;;;;;;;10.40;2.80;;;;;;;28.80;73.55;96121.34;5068626;28;20524;-77
2022/09/07 09:47:47;;;;;;;9.23;3.03;;;;;;;29.05;69.18;96125.06;5068377;28;20036;-76
2022/09/07 09:50:36;;;;;;;5.57;2.42;;;;;;;29.32;67.12;96120.00;5049095;28;20044;-77
2022/09/07 09:53:04;;;;;;;6.85;2.00;;;;;;;29.60;67.06;96117.66;5070313;28;20036;-76
2022/09/07 09:55:33;;;;;;;8.00;2.72;;;;;;;29.70;66.67;96111.34;5069833;28;20033;-76
2022/09/07 09:58:32;;;;;;;10.45;2.30;;;;;;;30.11;60.59;96111.75;5068125;28;20103;-76
2022/09/07 10:01:03;;;;;;;8.20;1.90;;;;;;;29.93;62.07;96112.50;5066051;28;20104;-76
2022/09/07 10:03:33;;;;;;;8.90;1.95;;;;;;;30.22;63.59;96109.81;5070427;28;20065;-77
2022/09/07 10:06:02;;;;;;;7.22;2.15;;;;;;;30.23;62.37;96103.28;5069440;28;20024;-77
2022/09/07 10:08:31;;;;;;;7.50;2.28;;;;;;;30.10;59.41;96093.88;5067768;28;20035;-76
2022/09/07 10:11:07;;;;;;;7.75;2.60;;;;;;;29.94;60.52;96089.72;5066150;28;20052;-77
2022/09/07 10:13:37;;;;;;;10.02;2.42;;;;;;;30.72;57.25;96083.97;5070543;28;20525;-77
2022/09/07 10:16:07;;;;;;;7.68;2.25;;;;;;;30.24;61.50;96089.41;5064690;28;20036;-77
2022/09/07 10:18:56;;;;;;;20.48;4.05;;;;;;;30.17;60.97;96086.22;5054897;28;20028;-77
2022/09/07 10:21:42;;;;;;;9.27;2.47;;;;;;;31.81;54.43;96075.84;5050190;28;20032;-77
2022/09/07 10:24:08;;;;;;;9.27;2.50;;;;;;;32.40;51.24;96082.41;5056203;28;20120;-76
2022/09/07 10:26:36;;;;;;;8.40;2.38;;;;;;;31.72;53.76;96077.63;5064213;28;20354;-76
2022/09/07 10:29:05;;;;;;;11.15;2.55;;;;;;;31.51;52.11;96072.53;5065391;28;20028;-77
2022/09/07 10:31:40;;;;;;;10.90;2.97;;;;;;;31.67;52.21;96065.75;5049245;28;20044;-77
2022/09/07 10:34:31;;;;;;;13.25;2.42;;;;;;;31.12;54.33;96070.13;5054072;28;20033;-77
2022/09/07 10:37:07;;;;;;;6.18;2.25;;;;;;;30.99;55.13;96074.41;5055921;28;20083;-77
2022/09/07 10:39:54;;;;;;;4.95;2.33;;;;;;;31.63;51.78;96070.19;5060694;28;20394;-78
2022/09/07 10:42:34;;;;;;;5.30;2.28;;;;;;;30.91;54.07;96077.78;5062651;28;20055;-76
2022/09/07 10:45:22;;;;;;;6.90;2.17;;;;;;;31.20;54.37;96078.44;5064667;28;20032;-77
2022/09/07 10:48:03;;;;;;;6.82;2.38;;;;;;;31.07;52.34;96073.75;5074839;28;20099;-77
2022/09/07 10:50:42;;;;;;;9.05;2.67;;;;;;;31.02;57.60;96073.00;5062157;28;20028;-77
2022/09/07 10:53:44;;;;;;;9.25;2.78;;;;;;;30.52;61.38;96084.25;5052572;28;20120;-77
2022/09/07 10:56:19;;;;;;;7.95;2.13;;;;;;;30.31;63.04;96083.66;5068609;28;20042;-76
2022/09/07 10:58:54;;;;;;;7.97;3.22;;;;;;;30.45;63.45;96071.03;5066220;28;20036;-77
2022/09/07 11:02:12;;;;;;;8.88;2.90;;;;;;;30.15;62.93;96074.88;5062460;28;20039;-77
2022/09/07 11:04:56;;;;;;;7.43;2.65;;;;;;;30.16;62.14;96071.03;5066863;28;20040;-77
2022/09/07 11:07:30;;;;;;;6.10;2.00;;;;;;;31.17;59.78;96051.84;5050188;28;20066;-77
2022/09/07 11:10:13;;;;;;;9.88;2.33;;;;;;;32.19;55.06;96043.06;5057372;28;20068;-77
2022/09/07 11:12:43;;;;;;;9.48;2.72;;;;;;;32.43;51.76;96043.72;5042192;28;21637;-77
2022/09/07 11:15:12;;;;;;;11.13;2.63;;;;;;;32.05;49.87;96043.88;5061372;28;20086;-77
2022/09/07 11:17:51;;;;;;;7.65;2.17;;;;;;;31.01;51.05;96026.03;5066397;28;20063;-77
2022/09/07 11:20:34;;;;;;;4.93;1.80;;;;;;;30.65;50.26;96037.38;5066039;28;20082;-77
2022/09/07 11:23:11;;;;;;;6.47;2.30;;;;;;;30.76;50.24;96025.31;5062806;28;20048;-77
2022/09/07 11:25:52;;;;;;;10.60;3.03;;;;;;;31.05;48.06;96023.53;5066240;28;20533;-78
2022/09/07 11:28:28;;;;;;;5.50;2.40;;;;;;;31.59;47.78;96022.13;5067593;28;20028;-78
2022/09/07 11:31:00;;;;;;;7.32;2.35;;;;;;;30.82;52.16;96022.50;5062916;28;20040;-78
2022/09/07 11:33:26;;;;;;;7.32;2.50;;;;;;;30.74;51.65;96019.31;5069085;28;20682;-78
2022/09/07 11:36:07;;;;;;;6.53;2.65;;;;;;;30.52;51.59;96016.38;5066942;28;20036;-78
2022/09/07 11:38:37;;;;;;;5.10;2.10;;;;;;;31.53;47.25;96004.31;5052622;28;20037;-79
2022/09/07 11:41:27;;;;;;;6.43;2.00;;;;;;;30.97;47.36;96016.84;5051771;28;21080;-79
2022/09/07 11:44:12;;;;;;;8.73;2.30;;;;;;;32.22;44.53;96018.00;5069154;28;20040;-78
2022/09/07 11:46:44;;;;;;;6.55;2.50;;;;;;;31.66;45.12;96015.22;5051152;28;20117;-78
2022/09/07 11:49:21;;;;;;;7.90;2.33;;;;;;;31.22;46.85;96008.31;5062462;28;20039;-78